sensor_id;sensor_type;location;lat;lon;timestamp;pressure;altitude;pressure_sealevel;temperature;humidity
40982;BME280;26708;50.304;19.028;2023-02-03T04:40:50;98562.63;;;0.68;52.75
40982;BME280;26708;50.304;19.028;2023-02-03T05:18:11;98743.81;;;2.13;54.08
40982;BME280;26708;50.304;19.028;2023-02-03T05:20:37;98580.69;;;1.17;54.39
40982;BME280;26708;50.304;19.028;2023-02-03T05:30:39;98668.69;;;1.52;54.88
40982;BME280;26708;50.304;19.028;2023-02-03T05:44:25;98611.78;;;1.23;55.55
40982;BME280;26708;50.304;19.028;2023-02-03T05:46:32;98555.69;;;0.91;55.89
40982;BME280;26708;50.304;19.028;2023-02-03T05:48:37;98680.13;;;1.60;55.55
40982;BME280;26708;50.304;19.028;2023-02-03T05:55:34;98393.41;;;-0.10;56.05
40982;BME280;26708;50.304;19.028;2023-02-03T09:36:09;98086.28;;;0.95;63.24
40982;BME280;26708;50.304;19.028;2023-02-03T11:36:05;97867.31;;;1.27;70.44
40982;BME280;26708;50.304;19.028;2023-02-03T13:07:02;97569.34;;;1.81;71.01
40982;BME280;26708;50.304;19.028;2023-02-03T13:11:02;97670.31;;;2.63;70.94
40982;BME280;26708;50.304;19.028;2023-02-03T13:14:55;97373.88;;;0.95;70.79
40982;BME280;26708;50.304;19.028;2023-02-03T13:18:18;97346.34;;;0.88;70.58
40982;BME280;26708;50.304;19.028;2023-02-03T13:43:59;97366.13;;;1.50;70.71
40982;BME280;26708;50.304;19.028;2023-02-03T13:46:59;97249.91;;;0.67;70.85
40982;BME280;26708;50.304;19.028;2023-02-03T13:56:17;97384.13;;;1.49;71.21
40982;BME280;26708;50.304;19.028;2023-02-03T13:59:42;97523.75;;;2.46;71.62
40982;BME280;26708;50.304;19.028;2023-02-03T14:02:44;97289.81;;;0.96;71.30
40982;BME280;26708;50.304;19.028;2023-02-03T14:13:48;97328.47;;;1.64;71.32
40982;BME280;26708;50.304;19.028;2023-02-03T14:16:22;97279.13;;;1.31;71.29
40982;BME280;26708;50.304;19.028;2023-02-03T14:18:43;97191.94;;;0.94;70.93
40982;BME280;26708;50.304;19.028;2023-02-03T14:21:10;97352.00;;;1.91;71.35
40982;BME280;26708;50.304;19.028;2023-02-03T14:23:37;97470.59;;;2.60;71.42
40982;BME280;26708;50.304;19.028;2023-02-03T14:25:51;97337.31;;;1.87;71.34
40982;BME280;26708;50.304;19.028;2023-02-03T14:28:00;97428.13;;;2.35;71.38
40982;BME280;26708;50.304;19.028;2023-02-03T14:30:13;97341.63;;;1.87;71.44
40982;BME280;26708;50.304;19.028;2023-02-03T14:32:23;97324.41;;;1.81;71.39
40982;BME280;26708;50.304;19.028;2023-02-03T14:34:49;97431.00;;;2.56;71.60
40982;BME280;26708;50.304;19.028;2023-02-03T14:36:55;97437.97;;;2.66;71.47
40982;BME280;26708;50.304;19.028;2023-02-03T14:39:03;97300.38;;;1.87;71.31
40982;BME280;26708;50.304;19.028;2023-02-03T14:41:36;97448.41;;;2.75;71.23
40982;BME280;26708;50.304;19.028;2023-02-03T14:44:04;97242.50;;;1.59;71.10
40982;BME280;26708;50.304;19.028;2023-02-03T14:46:43;97282.38;;;1.93;70.97
40982;BME280;26708;50.304;19.028;2023-02-03T14:49:43;97330.75;;;2.15;71.15
40982;BME280;26708;50.304;19.028;2023-02-03T14:52:30;97396.53;;;2.51;71.27
40982;BME280;26708;50.304;19.028;2023-02-03T14:55:21;97271.94;;;1.79;71.19
40982;BME280;26708;50.304;19.028;2023-02-03T14:57:42;97216.59;;;1.44;71.29
40982;BME280;26708;50.304;19.028;2023-02-03T15:00:00;97432.03;;;2.75;70.96
40982;BME280;26708;50.304;19.028;2023-02-03T15:02:16;97402.53;;;2.50;70.97
40982;BME280;26708;50.304;19.028;2023-02-03T15:04:46;97310.06;;;2.10;70.95
40982;BME280;26708;50.304;19.028;2023-02-03T15:06:56;97409.66;;;2.74;70.85
40982;BME280;26708;50.304;19.028;2023-02-03T15:09:13;97309.25;;;2.14;70.64
40982;BME280;26708;50.304;19.028;2023-02-03T15:11:31;97412.25;;;2.75;70.79
40982;BME280;26708;50.304;19.028;2023-02-03T15:13:36;97472.84;;;3.12;70.91
40982;BME280;26708;50.304;19.028;2023-02-03T15:15:42;97437.34;;;2.90;70.83
40982;BME280;26708;50.304;19.028;2023-02-03T15:17:48;97435.56;;;2.86;70.69
40982;BME280;26708;50.304;19.028;2023-02-03T15:19:57;97273.09;;;2.11;70.66
40982;BME280;26708;50.304;19.028;2023-02-03T15:22:36;97312.06;;;2.41;70.31
40982;BME280;26708;50.304;19.028;2023-02-03T15:24:42;97221.25;;;1.81;70.46
40982;BME280;26708;50.304;19.028;2023-02-03T15:26:49;97463.50;;;3.32;70.49
40982;BME280;26708;50.304;19.028;2023-02-03T15:28:58;97298.28;;;2.39;70.40
40982;BME280;26708;50.304;19.028;2023-02-03T15:31:13;97161.88;;;1.74;70.11
40982;BME280;26708;50.304;19.028;2023-02-03T15:33:30;97268.97;;;2.28;70.09
40982;BME280;26708;50.304;19.028;2023-02-03T15:35:56;97443.75;;;3.40;70.31
40982;BME280;26708;50.304;19.028;2023-02-03T15:38:12;97150.59;;;1.61;70.07
40982;BME280;26708;50.304;19.028;2023-02-03T15:40:35;97265.56;;;2.32;70.23
40982;BME280;26708;50.304;19.028;2023-02-03T15:42:55;97313.09;;;2.55;70.37
40982;BME280;26708;50.304;19.028;2023-02-03T15:45:16;97173.84;;;1.66;70.46
40982;BME280;26708;50.304;19.028;2023-02-03T15:48:00;97153.22;;;1.69;70.31
40982;BME280;26708;50.304;19.028;2023-02-03T15:50:26;97373.59;;;2.87;70.31
40982;BME280;26708;50.304;19.028;2023-02-03T15:52:43;97283.56;;;2.28;70.45
40982;BME280;26708;50.304;19.028;2023-02-03T15:55:00;97169.69;;;1.80;70.43
40982;BME280;26708;50.304;19.028;2023-02-03T15:57:20;97463.72;;;3.59;70.59
40982;BME280;26708;50.304;19.028;2023-02-03T15:59:37;97301.91;;;2.53;70.53
40982;BME280;26708;50.304;19.028;2023-02-03T16:01:47;97216.34;;;2.11;70.57
40982;BME280;26708;50.304;19.028;2023-02-03T16:03:58;97303.66;;;2.59;70.60
40982;BME280;26708;50.304;19.028;2023-02-03T16:06:08;97409.16;;;3.20;70.55
40982;BME280;26708;50.304;19.028;2023-02-03T16:08:36;97226.88;;;2.37;70.37
40982;BME280;26708;50.304;19.028;2023-02-03T16:10:48;97277.84;;;2.56;70.24
40982;BME280;26708;50.304;19.028;2023-02-03T16:13:17;97492.34;;;3.83;70.46
40982;BME280;26708;50.304;19.028;2023-02-03T16:15:27;97206.81;;;2.04;70.43
40982;BME280;26708;50.304;19.028;2023-02-03T16:17:57;97169.00;;;2.03;70.65
40982;BME280;26708;50.304;19.028;2023-02-03T16:20:48;97187.97;;;2.10;70.65
40982;BME280;26708;50.304;19.028;2023-02-03T16:23:20;97509.66;;;3.97;70.79
40982;BME280;26708;50.304;19.028;2023-02-03T16:25:33;97360.88;;;3.13;70.75
40982;BME280;26708;50.304;19.028;2023-02-03T16:27:39;97339.41;;;3.21;70.77
40982;BME280;26708;50.304;19.028;2023-02-03T16:30:14;97536.50;;;4.11;70.73
40982;BME280;26708;50.304;19.028;2023-02-03T16:32:55;97508.91;;;4.17;70.71
40982;BME280;26708;50.304;19.028;2023-02-03T16:35:32;97182.13;;;2.35;70.58
40982;BME280;26708;50.304;19.028;2023-02-03T16:38:04;97172.69;;;2.38;70.43
40982;BME280;26708;50.304;19.028;2023-02-03T16:40:35;97288.53;;;3.14;70.55
40982;BME280;26708;50.304;19.028;2023-02-03T16:43:11;97509.00;;;4.35;70.48
40982;BME280;26708;50.304;19.028;2023-02-03T16:45:58;97369.69;;;3.45;70.31
40982;BME280;26708;50.304;19.028;2023-02-03T16:48:19;97317.03;;;3.28;70.39
40982;BME280;26708;50.304;19.028;2023-02-03T16:50:38;97348.09;;;3.40;70.36
40982;BME280;26708;50.304;19.028;2023-02-03T16:52:58;97328.25;;;3.31;70.44
40982;BME280;26708;50.304;19.028;2023-02-03T16:55:04;97473.56;;;4.24;70.49
40982;BME280;26708;50.304;19.028;2023-02-03T16:57:14;97461.47;;;4.20;70.36
40982;BME280;26708;50.304;19.028;2023-02-03T16:59:21;97329.16;;;3.38;70.24
40982;BME280;26708;50.304;19.028;2023-02-03T17:05:07;97227.19;;;2.77;70.36
40982;BME280;26708;50.304;19.028;2023-02-03T17:13:10;97284.25;;;3.24;70.30
40982;BME280;26708;50.304;19.028;2023-02-03T17:15:17;97343.91;;;3.58;70.19
40982;BME280;26708;50.304;19.028;2023-02-03T17:17:23;97554.03;;;4.66;70.43
40982;BME280;26708;50.304;19.028;2023-02-03T17:19:31;97335.28;;;3.53;70.28
40982;BME280;26708;50.304;19.028;2023-02-03T17:45:11;97347.25;;;3.38;69.83
40982;BME280;26708;50.304;19.028;2023-02-03T18:19:55;97513.25;;;4.24;69.78
40982;BME280;26708;50.304;19.028;2023-02-03T18:22:16;97598.06;;;4.63;69.85
40982;BME280;26708;50.304;19.028;2023-02-03T18:25:09;97602.41;;;4.65;69.96
40982;BME280;26708;50.304;19.028;2023-02-03T18:39:25;97611.06;;;4.73;69.59
40982;BME280;26708;50.304;19.028;2023-02-03T18:52:42;97421.41;;;3.46;68.99
40982;BME280;26708;50.304;19.028;2023-02-03T18:55:43;97309.78;;;2.71;68.79
40982;BME280;26708;50.304;19.028;2023-02-03T18:57:51;97520.03;;;4.01;69.07
40982;BME280;26708;50.304;19.028;2023-02-03T18:59:56;97636.91;;;4.61;69.04
40982;BME280;26708;50.304;19.028;2023-02-03T19:02:02;97373.78;;;3.13;69.09
40982;BME280;26708;50.304;19.028;2023-02-03T19:04:07;97447.34;;;3.57;69.11
40982;BME280;26708;50.304;19.028;2023-02-03T19:06:17;97383.22;;;3.08;68.94
40982;BME280;26708;50.304;19.028;2023-02-03T19:11:28;97569.19;;;3.98;69.13
40982;BME280;26708;50.304;19.028;2023-02-03T19:13:44;97399.47;;;2.92;69.11
40982;BME280;26708;50.304;19.028;2023-02-03T19:15:53;97339.00;;;2.63;69.04
40982;BME280;26708;50.304;19.028;2023-02-03T19:18:06;97343.16;;;2.50;69.23
40982;BME280;26708;50.304;19.028;2023-02-03T19:24:03;97481.66;;;3.36;69.23
40982;BME280;26708;50.304;19.028;2023-02-03T19:30:11;97555.22;;;3.73;69.28
40982;BME280;26708;50.304;19.028;2023-02-03T19:40:38;97487.28;;;2.92;68.82
40982;BME280;26708;50.304;19.028;2023-02-03T19:49:15;97357.38;;;2.11;69.11
40982;BME280;26708;50.304;19.028;2023-02-03T19:54:33;97635.56;;;3.92;69.46
40982;BME280;26708;50.304;19.028;2023-02-03T19:56:57;97350.56;;;2.19;69.45
40982;BME280;26708;50.304;19.028;2023-02-03T20:13:53;97614.03;;;3.95;69.77
40982;BME280;26708;50.304;19.028;2023-02-03T20:21:53;97591.28;;;3.59;70.42
40982;BME280;26708;50.304;19.028;2023-02-03T20:24:32;97555.91;;;3.54;70.48
40982;BME280;26708;50.304;19.028;2023-02-03T20:27:02;97439.69;;;2.63;70.46
40982;BME280;26708;50.304;19.028;2023-02-03T20:30:12;97310.84;;;2.00;70.68
40982;BME280;26708;50.304;19.028;2023-02-03T20:54:48;97503.13;;;3.26;70.82
40982;BME280;26708;50.304;19.028;2023-02-03T21:13:33;97341.25;;;2.34;70.92
40982;BME280;26708;50.304;19.028;2023-02-03T21:19:50;97561.28;;;3.76;71.09
40982;BME280;26708;50.304;19.028;2023-02-03T21:45:45;97610.03;;;4.40;70.75
40982;BME280;26708;50.304;19.028;2023-02-03T21:59:47;97579.63;;;4.09;70.51
40982;BME280;26708;50.304;19.028;2023-02-03T22:15:02;97300.28;;;2.67;70.68
40982;BME280;26708;50.304;19.028;2023-02-03T22:18:20;97298.56;;;2.68;70.58
40982;BME280;26708;50.304;19.028;2023-02-03T22:44:46;97614.44;;;4.59;70.30
40982;BME280;26708;50.304;19.028;2023-02-03T22:53:19;97610.13;;;4.58;70.42
40982;BME280;26708;50.304;19.028;2023-02-03T22:55:24;97557.31;;;4.30;70.58
40982;BME280;26708;50.304;19.028;2023-02-03T22:57:33;97611.00;;;4.61;70.47
40982;BME280;26708;50.304;19.028;2023-02-03T22:59:39;97463.00;;;3.82;70.40
40982;BME280;26708;50.304;19.028;2023-02-03T23:01:58;97450.84;;;3.68;70.36
40982;BME280;26708;50.304;19.028;2023-02-03T23:04:16;97405.81;;;3.34;70.36
40982;BME280;26708;50.304;19.028;2023-02-03T23:07:07;97343.50;;;2.92;70.40
40982;BME280;26708;50.304;19.028;2023-02-03T23:10:19;97408.41;;;3.39;70.62
40982;BME280;26708;50.304;19.028;2023-02-03T23:13:17;97282.25;;;2.78;70.60
40982;BME280;26708;50.304;19.028;2023-02-03T23:15:33;97592.84;;;4.54;70.81
40982;BME280;26708;50.304;19.028;2023-02-03T23:41:35;97561.75;;;4.54;70.69
40982;BME280;26708;50.304;19.028;2023-02-03T23:45:13;97549.66;;;4.56;70.66
40982;BME280;26708;50.304;19.028;2023-02-03T23:54:22;97381.81;;;3.55;70.47
40982;BME280;26708;50.304;19.028;2023-02-03T23:58:08;97252.91;;;2.65;70.45
